Time;durP1;ratioP1;P1;durP2;ratioP2;P2;SDS_P1;SDS_P2;PMS_P1;PMS_P2;Temp;Humidity;BMP_temperature;BMP_pressure;BME280_temperature;BME280_humidity;BME280_pressure;Samples;Min_cycle;Max_cycle;Signal;HPM_P1;HPM_P2
2023/10/05 00:02:34;;;;;;;;;;;;;;;;;;4866006;29;19914;-80
2023/10/05 00:05:00;;;;;;;;;;;;;;;;;;4900093;29;19912;-81
2023/10/05 00:07:26;;;;;;;;;;;;;;;;;;4890266;29;19908;-79
2023/10/05 00:09:52;;;;;;;;;;;;;;;;;;4878943;29;19908;-80
2023/10/05 00:12:20;;;;;;;;;;;;;;;;;;4879374;29;19943;-78
2023/10/05 00:17:49;;;;;;;;;;;;;;;;;;4883967;29;19899;-81
2023/10/05 00:20:38;;;;;;;;;;;;;;;;;;4853967;29;19888;-81
2023/10/05 00:26:06;;;;;;;;;;;;;;;;;;4876762;29;19966;-81
2023/10/05 00:28:32;;;;;;;;;;;;;;;;;;4897478;29;19919;-80
2023/10/05 00:31:00;;;;;;;;;;;;;;;;;;4913908;29;19907;-80
2023/10/05 00:33:26;;;;;;;;;;;;;;;;;;4914976;29;19907;-80
2023/10/05 00:35:52;;;;;;;;;;;;;;;;;;4912824;29;20419;-79
2023/10/05 00:38:19;;;;;;;;;;;;;;;;;;4933095;29;19913;-80
2023/10/05 00:41:08;;;;;;;;;;;;;;;;;;4933030;29;19977;-80
2023/10/05 00:43:35;;;;;;;;;;;;;;;;;;4957296;29;19949;-79
2023/10/05 00:46:03;;;;;;;;;;;;;;;;;;4955071;29;19930;-80
2023/10/05 00:48:34;;;;;;;;;;;;;;;;;;4956007;29;19968;-80
2023/10/05 00:51:00;;;;;;;;;;;;;;;;;;4955467;29;19918;-80
2023/10/05 00:53:29;;;;;;;;;;;;;;;;;;4954493;29;20380;-79
2023/10/05 00:56:07;;;;;;;;;;;;;;;;;;4954711;29;19930;-79
2023/10/05 00:58:37;;;;;;;;;;;;;;;;;;5049711;28;19998;-80
2023/10/05 01:01:08;;;;;;;;;;;;;;;;;;5051066;28;19905;-81
2023/10/05 01:03:46;;;;;;;;;;;;;;;;;;5030725;28;20338;-81
2023/10/05 01:06:21;;;;;;;;;;;;;;;;;;5031516;28;19956;-81
2023/10/05 01:08:59;;;;;;;;;;;;;;;;;;5030552;28;19912;-81
2023/10/05 01:11:33;;;;;;;;;;;;;;;;;;5031783;28;19894;-81
2023/10/05 01:14:01;;;;;;;;;;;;;;;;;;5030890;28;19905;-80
2023/10/05 01:16:32;;;;;;;;;;;;;;;;;;5030653;28;20000;-80
2023/10/05 01:19:00;;;;;;;;;;;;;;;;;;5030508;28;19910;-81
2023/10/05 01:21:26;;;;;;;;;;;;;;;;;;5030634;28;20004;-81
2023/10/05 01:23:52;;;;;;;;;;;;;;;;;;5031078;28;19910;-80
2023/10/05 01:26:20;;;;;;;;;;;;;;;;;;5031290;28;19905;-80
2023/10/05 01:28:47;;;;;;;;;;;;;;;;;;5030589;28;19909;-80
2023/10/05 01:31:17;;;;;;;;;;;;;;;;;;5031227;28;19905;-80
2023/10/05 01:33:46;;;;;;;;;;;;;;;;;;5030099;28;19906;-80
2023/10/05 01:36:12;;;;;;;;;;;;;;;;;;5029987;28;19897;-80
2023/10/05 01:38:40;;;;;;;;;;;;;;;;;;5030489;28;19947;-80
2023/10/05 01:41:06;;;;;;;;;;;;;;;;;;5030839;28;19912;-84
2023/10/05 01:43:37;;;;;;;;;;;;;;;;;;5030227;28;19909;-80
2023/10/05 01:46:04;;;;;;;;;;;;;;;;;;5031472;28;19917;-81
2023/10/05 01:48:31;;;;;;;;;;;;;;;;;;5052356;28;19912;-81
2023/10/05 01:51:01;;;;;;;;;;;;;;;;;;5038298;28;19920;-81
2023/10/05 01:53:28;;;;;;;;;;;;;;;;;;5051430;28;19936;-81
2023/10/05 01:55:54;;;;;;;;;;;;;;;;;;5037069;28;19905;-81
2023/10/05 01:58:23;;;;;;;;;;;;;;;;;;5037847;28;19905;-80
2023/10/05 02:00:48;;;;;;;;;;;;;;;;;;5038141;28;19909;-80
2023/10/05 02:03:17;;;;;;;;;;;;;;;;;;5034450;28;20395;-79
2023/10/05 02:05:44;;;;;;;;;;;;;;;;;;5032363;28;19909;-79
2023/10/05 02:08:12;;;;;;;;;;;;;;;;;;5030955;28;19905;-79
2023/10/05 02:10:46;;;;;;;;;;;;;;;;;;5029932;28;19905;-79
2023/10/05 02:13:12;;;;;;;;;;;;;;;;;;5030407;28;19948;-79
2023/10/05 02:15:39;;;;;;;;;;;;;;;;;;5046808;28;19916;-79
2023/10/05 02:18:40;;;;;;;;;;;;;;;;;;5048998;28;19905;-79
2023/10/05 02:21:09;;;;;;;;;;;;;;;;;;5047100;28;19935;-79
2023/10/05 02:23:46;;;;;;;;;;;;;;;;;;5047683;28;19905;-78
2023/10/05 02:26:33;;;;;;;;;;;;;;;;;;5048178;28;19909;-79
2023/10/05 02:28:59;;;;;;;;;;;;;;;;;;5050750;28;19964;-79
2023/10/05 02:31:29;;;;;;;;;;;;;;;;;;5050688;28;19905;-79
2023/10/05 02:33:56;;;;;;;;;;;;;;;;;;5050903;28;19905;-79
2023/10/05 02:36:26;;;;;;;;;;;;;;;;;;5050547;28;20093;-78
2023/10/05 02:38:53;;;;;;;;;;;;;;;;;;5051100;28;20399;-79
2023/10/05 02:41:30;;;;;;;;;;;;;;;;;;5051959;28;19912;-79
2023/10/05 02:44:03;;;;;;;;;;;;;;;;;;5050738;28;19912;-78
2023/10/05 02:46:29;;;;;;;;;;;;;;;;;;5050482;28;19912;-79
2023/10/05 02:48:56;;;;;;;;;;;;;;;;;;5051167;28;19905;-80
2023/10/05 02:51:22;;;;;;;;;;;;;;;;;;5051167;28;19905;-79
2023/10/05 02:53:55;;;;;;;;;;;;;;;;;;5050594;28;19904;-79
2023/10/05 02:56:28;;;;;;;;;;;;;;;;;;5050753;28;19912;-83
2023/10/05 02:58:55;;;;;;;;;;;;;;;;;;5050973;28;19904;-79
2023/10/05 03:01:21;;;;;;;;;;;;;;;;;;5050200;28;19909;-80
2023/10/05 03:03:47;;;;;;;;;;;;;;;;;;5050223;28;20007;-79
2023/10/05 03:06:15;;;;;;;;;;;;;;;;;;5050861;28;19947;-79
2023/10/05 03:08:41;;;;;;;;;;;;;;;;;;5050082;28;19904;-78
2023/10/05 03:11:08;;;;;;;;;;;;;;;;;;5050118;28;19908;-79
2023/10/05 03:13:36;;;;;;;;;;;;;;;;;;5067520;28;20312;-79
2023/10/05 03:16:06;;;;;;;;;;;;;;;;;;5049498;28;19909;-79
2023/10/05 03:18:32;;;;;;;;;;;;;;;;;;5067257;28;19912;-79
2023/10/05 03:20:58;;;;;;;;;;;;;;;;;;5049950;28;19911;-79
2023/10/05 03:23:24;;;;;;;;;;;;;;;;;;5050946;28;19905;-79
2023/10/05 03:25:51;;;;;;;;;;;;;;;;;;5050315;28;19909;-78
2023/10/05 03:28:17;;;;;;;;;;;;;;;;;;5048464;28;19901;-78
2023/10/05 03:30:48;;;;;;;;;;;;;;;;;;5049276;28;19905;-79
2023/10/05 03:33:17;;;;;;;;;;;;;;;;;;5049884;28;19928;-79
2023/10/05 03:35:45;;;;;;;;;;;;;;;;;;5046955;28;19896;-78
2023/10/05 03:38:12;;;;;;;;;;;;;;;;;;5044823;28;19905;-78
2023/10/05 03:40:43;;;;;;;;;;;;;;;;;;5046132;28;19920;-78
2023/10/05 03:43:10;;;;;;;;;;;;;;;;;;5045628;28;19905;-80
2023/10/05 03:45:38;;;;;;;;;;;;;;;;;;5046230;28;19928;-79
2023/10/05 03:48:04;;;;;;;;;;;;;;;;;;5045740;28;19905;-79
2023/10/05 03:50:31;;;;;;;;;;;;;;;;;;5045809;28;19912;-80
2023/10/05 03:52:57;;;;;;;;;;;;;;;;;;5045834;28;19912;-79
2023/10/05 03:55:24;;;;;;;;;;;;;;;;;;5045081;28;19932;-79
2023/10/05 03:57:50;;;;;;;;;;;;;;;;;;5045786;28;19951;-79
2023/10/05 04:00:23;;;;;;;;;;;;;;;;;;5046423;28;19912;-78
2023/10/05 04:02:49;;;;;;;;;;;;;;;;;;5045470;28;20008;-79
2023/10/05 04:05:18;;;;;;;;;;;;;;;;;;5045473;28;19921;-79
2023/10/05 04:07:44;;;;;;;;;;;;;;;;;;5045629;28;19928;-80
2023/10/05 04:10:15;;;;;;;;;;;;;;;;;;5045701;28;19976;-79
2023/10/05 04:12:41;;;;;;;;;;;;;;;;;;5045348;28;19927;-79
2023/10/05 04:15:11;;;;;;;;;;;;;;;;;;5046855;28;20332;-80
2023/10/05 04:17:37;;;;;;;;;;;;;;;;;;5047797;28;19905;-81
2023/10/05 04:22:49;;;;;;;;;;;;;;;;;;5046681;28;19920;-80
2023/10/05 04:25:16;;;;;;;;;;;;;;;;;;5046453;28;19913;-81
2023/10/05 04:27:42;;;;;;;;;;;;;;;;;;4996445;28;1450043;-82
2023/10/05 04:30:09;;;;;;;;;;;;;;;;;;5046916;28;19996;-80
2023/10/05 04:32:35;;;;;;;;;;;;;;;;;;5047840;28;19911;-80
2023/10/05 04:35:10;;;;;;;;;;;;;;;;;;5050259;28;19905;-80
2023/10/05 04:37:36;;;;;;;;;;;;;;;;;;5048216;28;19905;-79
2023/10/05 04:40:07;;;;;;;;;;;;;;;;;;5049280;28;19916;-78
2023/10/05 04:42:33;;;;;;;;;;;;;;;;;;5049220;28;19909;-79
2023/10/05 04:44:59;;;;;;;;;;;;;;;;;;5047872;28;19909;-79
2023/10/05 04:47:27;;;;;;;;;;;;;;;;;;5048540;28;19909;-79
2023/10/05 04:49:53;;;;;;;;;;;;;;;;;;5047814;28;19932;-78
2023/10/05 04:52:23;;;;;;;;;;;;;;;;;;5048654;28;19905;-79
2023/10/05 04:54:57;;;;;;;;;;;;;;;;;;5047439;28;20387;-80
2023/10/05 04:57:35;;;;;;;;;;;;;;;;;;5048321;28;19905;-79
2023/10/05 05:00:48;;;;;;;;;;;;;;;;;;5048018;28;19992;-78
2023/10/05 05:03:17;;;;;;;;;;;;;;;;;;5049251;28;19905;-78
2023/10/05 05:08:27;;;;;;;;;;;;;;;;;;5048395;28;19928;-80
2023/10/05 05:10:53;;;;;;;;;;;;;;;;;;5046288;28;19909;-80
2023/10/05 05:13:23;;;;;;;;;;;;;;;;;;5044651;28;19905;-78
2023/10/05 05:15:50;;;;;;;;;;;;;;;;;;5044160;28;20345;-79
2023/10/05 05:18:17;;;;;;;;;;;;;;;;;;5043878;28;19948;-79
2023/10/05 05:20:47;;;;;;;;;;;;;;;;;;5045471;28;20391;-79
2023/10/05 05:23:16;;;;;;;;;;;;;;;;;;5046445;28;19984;-78
2023/10/05 05:25:42;;;;;;;;;;;;;;;;;;5045182;28;20094;-78
2023/10/05 05:28:09;;;;;;;;;;;;;;;;;;5044213;28;19921;-79
2023/10/05 05:30:39;;;;;;;;;;;;;;;;;;5045781;28;19988;-78
2023/10/05 05:33:09;;;;;;;;;;;;;;;;;;5044219;28;19955;-79
2023/10/05 05:35:35;;;;;;;;;;;;;;;;;;5043993;28;19928;-78
2023/10/05 05:38:02;;;;;;;;;;;;;;;;;;5044451;28;19909;-80
2023/10/05 05:40:29;;;;;;;;;;;;;;;;;;5045969;28;19905;-78
2023/10/05 05:42:56;;;;;;;;;;;;;;;;;;5046230;28;19912;-77
2023/10/05 05:45:22;;;;;;;;;;;;;;;;;;5048096;28;19928;-78
2023/10/05 05:47:48;;;;;;;;;;;;;;;;;;5045056;28;19909;-78
2023/10/05 05:50:17;;;;;;;;;;;;;;;;;;5043214;28;19955;-80
2023/10/05 05:52:45;;;;;;;;;;;;;;;;;;5043821;28;19934;-78
2023/10/05 05:55:14;;;;;;;;;;;;;;;;;;5043630;28;19905;-78
2023/10/05 05:57:40;;;;;;;;;;;;;;;;;;5043199;28;19905;-78
2023/10/05 06:00:12;;;;;;;;;;;;;;;;;;5042639;28;19905;-78
2023/10/05 06:02:41;;;;;;;;;;;;;;;;;;5042737;28;19913;-78
2023/10/05 06:05:10;;;;;;;;;;;;;;;;;;5042461;28;19909;-78
2023/10/05 06:07:36;;;;;;;;;;;;;;;;;;5042071;28;19968;-78
2023/10/05 06:10:04;;;;;;;;;;;;;;;;;;5045947;28;19905;-79
2023/10/05 06:12:32;;;;;;;;;;;;;;;;;;5046542;28;19928;-79
2023/10/05 06:14:58;;;;;;;;;;;;;;;;;;5045257;28;19928;-79
2023/10/05 06:17:24;;;;;;;;;;;;;;;;;;5045526;28;20007;-78
2023/10/05 06:19:50;;;;;;;;;;;;;;;;;;5044223;28;19912;-78
2023/10/05 06:22:16;;;;;;;;;;;;;;;;;;5045391;28;19905;-78
2023/10/05 06:24:42;;;;;;;;;;;;;;;;;;5045546;28;19919;-78
2023/10/05 06:27:08;;;;;;;;;;;;;;;;;;5044086;28;19963;-78
2023/10/05 06:29:34;;;;;;;;;;;;;;;;;;5044373;28;19905;-78
2023/10/05 06:32:00;;;;;;;;;;;;;;;;;;5045391;28;19962;-78
2023/10/05 06:34:26;;;;;;;;;;;;;;;;;;5043400;28;19974;-78
2023/10/05 06:36:52;;;;;;;;;;;;;;;;;;5044156;28;20319;-78
2023/10/05 06:39:19;;;;;;;;;;;;;;;;;;5047413;28;19905;-79
2023/10/05 06:41:47;;;;;;;;;;;;;;;;;;5048498;28;19905;-78
2023/10/05 06:44:13;;;;;;;;;;;;;;;;;;5048922;28;20051;-79
2023/10/05 06:46:42;;;;;;;;;;;;;;;;;;5045026;28;19905;-78
2023/10/05 06:49:09;;;;;;;;;;;;;;;;;;5043606;28;19909;-78
2023/10/05 06:51:39;;;;;;;;;;;;;;;;;;5044503;28;20319;-78
2023/10/05 06:54:05;;;;;;;;;;;;;;;;;;5045961;28;19940;-79
2023/10/05 06:56:31;;;;;;;;;;;;;;;;;;5043981;28;19912;-79
2023/10/05 06:58:57;;;;;;;;;;;;;;;;;;5045073;28;19955;-79
2023/10/05 07:01:23;;;;;;;;;;;;;;;;;;5045144;28;20345;-78
2023/10/05 07:03:55;;;;;;;;;;;;;;;;;;5044368;28;19909;-79
2023/10/05 07:06:25;;;;;;;;;;;;;;;;;;5045438;28;19905;-79
2023/10/05 07:08:52;;;;;;;;;;;;;;;;;;5044727;28;19905;-79
2023/10/05 07:11:18;;;;;;;;;;;;;;;;;;5043913;28;19964;-79
2023/10/05 07:13:45;;;;;;;;;;;;;;;;;;5043503;28;19951;-79
2023/10/05 07:16:12;;;;;;;;;;;;;;;;;;5043294;28;19905;-79
2023/10/05 07:18:39;;;;;;;;;;;;;;;;;;5044155;28;19955;-78
2023/10/05 07:21:08;;;;;;;;;;;;;;;;;;5044707;28;19936;-78
2023/10/05 07:23:34;;;;;;;;;;;;;;;;;;5044553;28;19905;-78
2023/10/05 07:26:00;;;;;;;;;;;;;;;;;;5046600;28;19920;-80
2023/10/05 07:28:26;;;;;;;;;;;;;;;;;;5044809;28;19924;-78
2023/10/05 07:30:52;;;;;;;;;;;;;;;;;;5044582;28;19905;-78
2023/10/05 07:33:19;;;;;;;;;;;;;;;;;;5045053;28;19972;-79
2023/10/05 07:35:45;;;;;;;;;;;;;;;;;;5044647;28;19905;-78
2023/10/05 07:38:11;;;;;;;;;;;;;;;;;;5043611;28;19993;-79
2023/10/05 07:40:37;;;;;;;;;;;;;;;;;;5045466;28;19905;-79
2023/10/05 07:43:06;;;;;;;;;;;;;;;;;;5047455;28;19939;-79
2023/10/05 07:45:32;;;;;;;;;;;;;;;;;;5048060;28;19909;-80
2023/10/05 07:47:59;;;;;;;;;;;;;;;;;;5046181;28;19948;-79
2023/10/05 07:50:25;;;;;;;;;;;;;;;;;;5045227;28;19934;-79
2023/10/05 07:52:51;;;;;;;;;;;;;;;;;;5045306;28;19929;-79
2023/10/05 07:55:17;;;;;;;;;;;;;;;;;;5044878;28;19916;-78
2023/10/05 07:57:44;;;;;;;;;;;;;;;;;;5045192;28;20325;-80
2023/10/05 08:00:13;;;;;;;;;;;;;;;;;;5042942;28;19912;-81
2023/10/05 08:02:39;;;;;;;;;;;;;;;;;;5044017;28;19905;-78
2023/10/05 08:05:09;;;;;;;;;;;;;;;;;;5044821;28;19981;-78
2023/10/05 08:07:35;;;;;;;;;;;;;;;;;;5046682;28;19909;-78
2023/10/05 08:10:03;;;;;;;;;;;;;;;;;;5048786;28;19912;-79
2023/10/05 08:12:29;;;;;;;;;;;;;;;;;;5048591;28;19905;-78
2023/10/05 08:14:55;;;;;;;;;;;;;;;;;;5048654;28;19905;-78
2023/10/05 08:17:21;;;;;;;;;;;;;;;;;;5048438;28;20379;-79
2023/10/05 08:19:47;;;;;;;;;;;;;;;;;;5049356;28;19905;-78
2023/10/05 08:22:22;;;;;;;;;;;;;;;;;;5050297;28;19947;-77
2023/10/05 08:24:48;;;;;;;;;;;;;;;;;;5047610;28;19911;-77
2023/10/05 08:27:17;;;;;;;;;;;;;;;;;;5051335;28;19917;-80
2023/10/05 08:29:44;;;;;;;;;;;;;;;;;;5055905;28;19889;-85
2023/10/05 08:32:16;;;;;;;;;;;;;;;;;;5040716;28;19905;-84
2023/10/05 08:37:42;;;;;;;;;;;;;;;;;;5059573;28;19935;-84
2023/10/05 08:43:16;;;;;;;;;;;;;;;;;;5020134;28;19912;-87
2023/10/05 08:46:03;;;;;;;;;;;;;;;;;;5000546;28;20464;-85
2023/10/05 08:48:49;;;;;;;;;;;;;;;;;;4998673;28;19894;-81
2023/10/05 08:51:39;;;;;;;;;;;;;;;;;;4963329;29;19922;-82
2023/10/05 08:54:14;;;;;;;;;;;;;;;;;;4957583;29;19911;-80
2023/10/05 08:56:40;;;;;;;;;;;;;;;;;;4939790;29;19913;-83
2023/10/05 08:59:07;;;;;;;;;;;;;;;;;;4950852;29;19987;-81
2023/10/05 09:01:50;;;;;;;;;;;;;;;;;;4957123;29;19891;-82
2023/10/05 09:06:47;;;;;;;;;;;;;;;;;;4917324;29;19911;-80
2023/10/05 09:09:20;;;;;;;;;;;;;;;;;;4940974;29;19915;-84
2023/10/05 09:11:50;;;;;;;;;;;;;;;;;;4952139;29;19907;-84
2023/10/05 09:14:39;;;;;;;;;;;;;;;;;;4959301;29;19962;-83
2023/10/05 09:17:27;;;;;;;;;;;;;;;;;;4958320;29;19891;-85
2023/10/05 09:20:00;;;;;;;;;;;;;;;;;;4941775;29;19907;-81
2023/10/05 09:22:33;;;;;;;;;;;;;;;;;;4976872;28;19906;-84
2023/10/05 09:25:05;;;;;;;;;;;;;;;;;;4978794;29;19956;-85
2023/10/05 09:27:50;;;;;;;;;;;;;;;;;;4976325;29;19914;-83
2023/10/05 09:30:22;;;;;;;;;;;;;;;;;;4975653;29;19918;-80
2023/10/05 09:36:06;;;;;;;;;;;;;;;;;;4928409;29;19952;-85
2023/10/05 09:41:35;;;;;;;;;;;;;;;;;;4931652;29;19932;-84
2023/10/05 09:44:18;;;;;;;;;;;;;;;;;;4920600;29;19907;-86
2023/10/05 09:47:04;;;;;;;;;;;;;;;;;;4917040;29;19975;-82
2023/10/05 09:55:18;;;;;;;;;;;;;;;;;;4928589;29;19918;-83
2023/10/05 09:58:12;;;;;;;;;;;;;;;;;;4894855;29;19912;-82
2023/10/05 10:01:10;;;;;;;;;;;;;;;;;;4882347;29;19892;-83
2023/10/05 10:03:43;;;;;;;;;;;;;;;;;;4850452;29;19911;-84
2023/10/05 10:06:12;;;;;;;;;;;;;;;;;;4851165;29;19918;-84
2023/10/05 10:09:07;;;;;;;;;;;;;;;;;;4854690;29;19908;-82
2023/10/05 10:11:50;;;;;;;;;;;;;;;;;;4862971;29;19929;-86
2023/10/05 10:14:23;;;;;;;;;;;;;;;;;;4861926;29;19908;-86
2023/10/05 10:22:50;;;;;;;;;;;;;;;;;;4877497;29;19912;-83
2023/10/05 10:25:39;;;;;;;;;;;;;;;;;;4880080;29;19912;-83
2023/10/05 10:34:05;;;;;;;;;;;;;;;;;;4900638;29;19915;-86
2023/10/05 10:36:53;;;;;;;;;;;;;;;;;;4881108;29;19929;-86
2023/10/05 10:39:56;;;;;;;;;;;;;;;;;;4904736;29;19915;-85
2023/10/05 10:45:11;;;;;;;;;;;;;;;;;;4901087;29;19987;-85
2023/10/05 10:50:51;;;;;;;;;;;;;;;;;;4896572;29;19915;-85
2023/10/05 10:56:27;;;;;;;;;;;;;;;;;;4852924;29;19916;-85
2023/10/05 11:04:39;;;;;;;;;;;;;;;;;;4859819;29;19919;-85
2023/10/05 11:07:29;;;;;;;;;;;;;;;;;;4840005;29;19916;-86
2023/10/05 11:10:23;;;;;;;;;;;;;;;;;;4859938;29;19909;-84
2023/10/05 11:21:45;;;;;;;;;;;;;;;;;;4822211;29;19996;-86
2023/10/05 11:24:46;;;;;;;;;;;;;;;;;;4829219;29;19914;-88
2023/10/05 11:35:52;;;;;;;;;;;;;;;;;;4786125;30;19923;-88
2023/10/05 11:38:43;;;;;;;;;;;;;;;;;;4791874;30;19924;-88
2023/10/05 11:41:33;;;;;;;;;;;;;;;;;;4807177;29;20409;-86
2023/10/05 11:44:23;;;;;;;;;;;;;;;;;;4831439;29;19944;-87
2023/10/05 11:49:43;;;;;;;;;;;;;;;;;;4847954;29;19912;-86
2023/10/05 11:52:23;;;;;;;;;;;;;;;;;;4867422;29;19975;-87
2023/10/05 11:58:01;;;;;;;;;;;;;;;;;;4882353;29;19915;-87
2023/10/05 12:00:46;;;;;;;;;;;;;;;;;;4935863;29;20411;-88
2023/10/05 12:03:12;;;;;;;;;;;;;;;;;;4911784;29;19946;-87
2023/10/05 12:06:08;;;;;;;;;;;;;;;;;;4884834;29;19912;-87
2023/10/05 12:11:28;;;;;;;;;;;;;;;;;;5095817;28;19973;-87
2023/10/05 12:27:35;;;;;;;;;;;;;;;;;;5082976;28;19900;-86
2023/10/05 13:27:48;;;;;;;;;;;;;;;;;;5062761;28;19919;-84
2023/10/05 13:35:47;;;;;;;;;;;;;;;;;;5073935;22;19921;-83
2023/10/05 13:38:13;;;;;;;;;;;;;;;;;;5040620;28;20268;-87
2023/10/05 13:40:51;;;;;;;;;;;;;;;;;;5039353;28;19957;-88
2023/10/05 13:43:20;;;;;;;;;;;;;;;;;;5039408;28;20253;-89
2023/10/05 13:45:46;;;;;;;;;;;;;;;;;;5039506;28;19909;-87
2023/10/05 13:59:21;;;;;;;;;;;;;;;;;;5055550;28;19916;-82
2023/10/05 14:05:07;;;;;;;;;;;;;;;;;;5051832;28;19924;-82
2023/10/05 14:07:53;;;;;;;;;;;;;;;;;;4968962;29;19917;-81
2023/10/05 14:46:26;;;;;;;;;;;;;;;;;;5075656;28;19924;-83
2023/10/05 14:48:57;;;;;;;;;;;;;;;;;;5054251;28;19916;-86
2023/10/05 14:51:58;;;;;;;;;;;;;;;;;;4990581;28;19906;-83
2023/10/05 14:54:24;;;;;;;;;;;;;;;;;;4985641;28;20405;-86
2023/10/05 15:00:45;;;;;;;;;;;615.10;2073.60;;;;;;4992046;28;19982;-85
2023/10/05 15:03:39;;;;;;;;;;;615.10;2073.60;;;;;;4974793;28;19937;-86
2023/10/05 15:09:25;;;;;;;;;;;615.10;2099.20;;;;;;4919193;29;20024;-87
2023/10/05 15:12:07;;;;;;;;;;;614.90;2099.20;;;;;;4932241;29;19907;-86
2023/10/05 15:15:00;;;;;;;;;;;615.00;2099.20;;;;;;4895517;29;19911;-87
2023/10/05 15:18:06;;;;;;;;;;;614.90;2099.20;;;;;;4888495;29;19939;-88
2023/10/05 15:21:11;;;;;;;;;;;614.80;2150.40;;;;;;4859687;29;19942;-84
2023/10/05 15:24:25;;;;;;;;;;;614.60;2150.40;;;;;;4849192;29;19912;-82
2023/10/05 15:30:54;;;;;;;;;;;614.60;2150.40;;;;;;4858791;29;19972;-82
2023/10/05 15:48:17;;;;;;;;;;;589.60;2227.20;;;;;;4823645;29;19920;-85
2023/10/05 15:54:02;;;;;;;;;;;589.30;2278.40;;;;;;4860840;29;20076;-85
2023/10/05 15:57:20;;;;;;;;;;;589.20;2278.40;;;;;;4827514;29;19919;-85
2023/10/05 16:15:39;;;;;;;;;;;563.90;2380.80;;;;;;4876139;29;19967;-83
2023/10/05 16:18:35;;;;;;;;;;;;;;;;;;4894676;29;20056;-85
2023/10/05 16:24:21;;;;;;;;;;;;;;;;;;4895208;29;19914;-85
2023/10/05 16:30:06;;;;;;;;;;;;;;;;;;4885854;29;19932;-84
2023/10/05 16:38:30;;;;;;;;;;;;;;;;;;4935809;29;19929;-84
2023/10/05 16:41:24;;;;;;;;;;;;;;;;;;4936217;29;19922;-85
2023/10/05 16:49:45;;;;;;;;;;;;;;;;;;4880246;29;19910;-85
2023/10/05 16:55:16;;;;;;;;;;;;;;;;;;4862157;29;19912;-85
2023/10/05 16:58:18;;;;;;;;;;;;;;;;;;4900430;29;19946;-86
2023/10/05 17:01:15;;;;;;;;;;;;;;;;;;4918388;29;19908;-82
2023/10/05 17:04:03;;;;;;;;;;;;;;;;;;4917682;29;19915;-84
2023/10/05 17:06:47;;;;;;;;;;;;;;;;;;4903224;29;19899;-86
2023/10/05 17:18:01;;;;;;;;;;;;;;;;;;4957244;29;19974;-86
2023/10/05 17:20:47;;;;;;;;;;;;;;;;;;4926178;29;19908;-86
2023/10/05 17:23:17;;;;;;;;;;;;;;;;;;4871880;29;19955;-86
2023/10/05 17:26:09;;;;;;;;;;;;;;;;;;4875875;29;19943;-85
2023/10/05 17:28:56;;;;;;;;;;;;;;;;;;4891493;29;19915;-85
2023/10/05 17:37:17;;;;;;;;;;;;;;;;;;4940060;29;19915;-85
2023/10/05 17:40:12;;;;;;;;;;;;;;;;;;4937726;29;19911;-85
2023/10/05 17:48:27;;;;;;;;;;;;;;;;;;4901624;29;20044;-85
2023/10/05 17:50:55;;;;;;;;;;;;;;;;;;4900511;29;19971;-86
2023/10/05 17:53:55;;;;;;;;;;;;;;;;;;4897732;29;19908;-85
2023/10/05 17:56:42;;;;;;;;;;;;;;;;;;4862383;29;19909;-85
2023/10/05 18:02:26;;;;;;;;;;;;;;;;;;4805086;29;19917;-84
2023/10/05 18:05:03;;;;;;;;;;;;;;;;;;4803973;29;19918;-82
2023/10/05 18:07:40;;;;;;;;;;;;;;;;;;4792020;30;19913;-83
2023/10/05 18:21:19;;;;;;;;;;;;;;;;;;4790531;30;19915;-81
2023/10/05 18:26:59;;;;;;;;;;;;;;;;;;4808526;29;19939;-82
2023/10/05 18:29:48;;;;;;;;;;;;;;;;;;4830548;29;19915;-82
2023/10/05 18:32:22;;;;;;;;;;;;;;;;;;4848672;29;19916;-82
2023/10/05 18:35:11;;;;;;;;;;;;;;;;;;4883245;29;19919;-84
2023/10/05 18:38:06;;;;;;;;;;;;;;;;;;4902885;29;19935;-84
2023/10/05 18:40:44;;;;;;;;;;;;;;;;;;4907853;29;19941;-82
2023/10/05 18:43:30;;;;;;;;;;;;;;;;;;4956960;29;19961;-83
2023/10/05 18:46:05;;;;;;;;;;;;;;;;;;4955040;29;19915;-81
2023/10/05 18:48:47;;;;;;;;;;;;;;;;;;4957995;29;19891;-83
2023/10/05 18:54:33;;;;;;;;;;;;;;;;;;4966286;28;19908;-86
2023/10/05 18:57:19;;;;;;;;;;;;;;;;;;4997195;28;19890;-82
2023/10/05 19:05:24;;;;;;;;;;;;;;;;;;4994890;28;20004;-85
2023/10/05 19:08:28;;;;;;;;;;;;;;;;;;4958211;29;19906;-85
2023/10/05 19:11:14;;;;;;;;;;;;;;;;;;4942956;29;19907;-82
2023/10/05 19:14:00;;;;;;;;;;;;;;;;;;4902944;29;19912;-83
2023/10/05 19:16:48;;;;;;;;;;;;;;;;;;4869930;29;19912;-81
2023/10/05 19:19:35;;;;;;;;;;;;;;;;;;4861390;29;19908;-83
2023/10/05 19:22:26;;;;;;;;;;;;;;;;;;4863179;29;19908;-84
2023/10/05 19:25:12;;;;;;;;;;;;;;;;;;4809941;29;20000;-85
2023/10/05 19:27:50;;;;;;;;;;;;;;;;;;4810392;29;19910;-85
2023/10/05 19:30:18;;;;;;;;;;;;;;;;;;4795794;30;19894;-84
2023/10/05 19:32:49;;;;;;;;;;;;;;;;;;4810182;30;19920;-83
2023/10/05 19:38:22;;;;;;;;;;;;;;;;;;4827147;29;20004;-85
2023/10/05 19:40:54;;;;;;;;;;;;;;;;;;4808241;29;19912;-81
2023/10/05 19:43:51;;;;;;;;;;;;;;;;;;4793819;29;19932;-83
2023/10/05 19:49:14;;;;;;;;;;;;;;;;;;4823488;29;19924;-86
2023/10/05 19:52:07;;;;;;;;;;;;;;;;;;4825425;29;19926;-85
2023/10/05 19:54:45;;;;;;;;;;;;;;;;;;4820389;29;19923;-85
2023/10/05 19:57:15;;;;;;;;;;;;;;;;;;4826829;29;19897;-86
2023/10/05 20:00:01;;;;;;;;;;;;;;;;;;4809402;30;19973;-86
2023/10/05 20:02:36;;;;;;;;;;;;;;;;;;4819982;29;19960;-84
2023/10/05 20:05:06;;;;;;;;;;;;;;;;;;4845003;29;19940;-84
2023/10/05 20:07:46;;;;;;;;;;;;;;;;;;4844359;29;19973;-85
2023/10/05 20:10:19;;;;;;;;;;;;;;;;;;4849501;29;19976;-86
2023/10/05 20:12:51;;;;;;;;;;;;;;;;;;4831222;29;19909;-86
2023/10/05 20:15:40;;;;;;;;;;;;;;;;;;5114250;23;19928;-87
2023/10/05 20:18:41;;;;;;;;;;;;;;;;;;5101619;28;19912;-88
2023/10/05 20:21:32;;;;;;;;;;;;;;;;;;5060034;28;19908;-85
2023/10/05 20:29:47;;;;;;;;;;;;;;;;;;5020244;28;19919;-85
2023/10/05 20:32:20;;;;;;;;;;;;;;;;;;5019628;28;19897;-86
2023/10/05 20:35:07;;;;;;;;;;;;;;;;;;4962296;29;19907;-87
2023/10/05 20:40:41;;;;;;;;;;;;;;;;;;4942546;29;19935;-86
2023/10/05 20:46:01;;;;;;;;;;;;;;;;;;4942297;29;19906;-87
2023/10/05 20:48:55;;;;;;;;;;;;;;;;;;4911448;29;19891;-86
2023/10/05 20:51:49;;;;;;;;;;;;;;;;;;4923523;29;19915;-87
2023/10/05 20:57:31;;;;;;;;;;;;;;;;;;4903623;29;19965;-85
2023/10/05 21:03:03;;;;;;;;;;;;;;;;;;4866065;29;19938;-86
2023/10/05 21:11:05;;;;;;;;;;;;;;;;;;4876123;29;19902;-86
2023/10/05 21:13:37;;;;;;;;;;;;;;;;;;4924474;29;19963;-86
2023/10/05 21:16:32;;;;;;;;;;;;;;;;;;4903347;29;19971;-87
2023/10/05 21:21:47;;;;;;;;;;;;;;;;;;4909037;29;19938;-80
2023/10/05 21:24:22;;;;;;;;;;;;;;;;;;4922264;29;20400;-82
2023/10/05 21:29:52;;;;;;;;;;;;;;;;;;4922053;29;19978;-83
2023/10/05 21:43:46;;;;;;;;;;;;;;;;;;5000775;28;19913;-84
2023/10/05 21:46:19;;;;;;;;;;;;;;;;;;4984330;28;19914;-84
2023/10/05 21:49:09;;;;;;;;;;;;;;;;;;4996914;28;19910;-81
2023/10/05 21:52:06;;;;;;;;;;;;;;;;;;4993304;28;19906;-80
2023/10/05 21:54:52;;;;;;;;;;;;;;;;;;4955492;29;19907;-80
2023/10/05 21:57:21;;;;;;;;;;;;;;;;;;4970758;29;19937;-81
2023/10/05 22:00:35;;;;;;;;;;;;;;;;;;4976503;29;19973;-80
2023/10/05 22:03:07;;;;;;;;;;;;;;;;;;4956983;29;19906;-81
2023/10/05 22:08:46;;;;;;;;;;;;;;;;;;4943063;29;19998;-86
2023/10/05 22:13:58;;;;;;;;;;;;;;;;;;4960327;29;20004;-82
2023/10/05 22:16:34;;;;;;;;;;;;;;;;;;4956895;29;19906;-81
2023/10/05 22:19:06;;;;;;;;;;;;;;;;;;4956005;29;19914;-81
2023/10/05 22:21:33;;;;;;;;;;;;;;;;;;4954721;29;19915;-81
2023/10/05 22:24:00;;;;;;;;;;;;;;;;;;4952879;29;19907;-80
2023/10/05 22:26:27;;;;;;;;;;;;;;;;;;4954096;29;19925;-80
2023/10/05 22:28:53;;;;;;;;;;;;;;;;;;4957356;29;19907;-82
2023/10/05 22:31:41;;;;;;;;;;;;;;;;;;4955715;29;19907;-81
2023/10/05 22:34:12;;;;;;;;;;;;;;;;;;4957080;29;19907;-83
2023/10/05 22:37:05;;;;;;;;;;;;;;;;;;4959295;29;19911;-84
2023/10/05 22:45:10;;;;;;;;;;;;;;;;;;4977729;29;19921;-82
2023/10/05 22:50:26;;;;;;;;;;;;;;;;;;4973983;29;19962;-80
2023/10/05 22:52:53;;;;;;;;;;;;;;;;;;4974730;29;19907;-82
2023/10/05 22:55:19;;;;;;;;;;;;;;;;;;4971866;29;19902;-81
2023/10/05 23:00:29;;;;;;;;;;;;;;;;;;4976403;29;19917;-80
2023/10/05 23:02:55;;;;;;;;;;;;;;;;;;4976564;29;19954;-81
2023/10/05 23:05:22;;;;;;;;;;;;;;;;;;4975139;28;19953;-79
2023/10/05 23:07:50;;;;;;;;;;;;;;;;;;4968945;29;19968;-80
2023/10/05 23:10:19;;;;;;;;;;;;;;;;;;4953372;29;20009;-80
2023/10/05 23:12:46;;;;;;;;;;;;;;;;;;4969589;28;19906;-81
2023/10/05 23:15:14;;;;;;;;;;;;;;;;;;4991062;28;19906;-80
2023/10/05 23:17:44;;;;;;;;;;;;;;;;;;5005920;28;19906;-78
2023/10/05 23:20:12;;;;;;;;;;;;;;;;;;4992688;28;19976;-79
2023/10/05 23:22:41;;;;;;;;;;;;;;;;;;5027563;28;19909;-79
2023/10/05 23:25:21;;;;;;;;;;;;;;;;;;5012354;28;20321;-79
2023/10/05 23:30:47;;;;;;;;;;;;;;;;;;5029329;28;19944;-80
2023/10/05 23:33:35;;;;;;;;;;;;;;;;;;5030374;28;19905;-79
2023/10/05 23:38:59;;;;;;;;;;;;;;;;;;5091855;28;19980;-81
2023/10/05 23:41:54;;;;;;;;;;;;;;;;;;5050203;28;19905;-80
2023/10/05 23:44:46;;;;;;;;;;;;;;;;;;5050289;28;19916;-80
2023/10/05 23:47:29;;;;;;;;;;;;;;;;;;5032264;28;19904;-81
2023/10/05 23:52:54;;;;;;;;;;;;;;;;;;5030395;28;19973;-81
2023/10/05 23:55:22;;;;;;;;;;;;;;;;;;5030482;28;19924;-81
2023/10/05 23:57:51;;;;;;;;;;;;;;;;;;5030781;28;19905;-82
